Time;durP1;ratioP1;P1;durP2;ratioP2;P2;SDS_P1;SDS_P2;PMS_P1;PMS_P2;Temp;Humidity;BMP_temperature;BMP_pressure;BME280_temperature;BME280_humidity;BME280_pressure;Samples;Min_cycle;Max_cycle;Signal;HPM_P1;HPM_P2
2022/12/02 00:09:31;;;;;;;2.28;1.48;;;;;;;20.72;34.76;103035.31;21073072;28;20054;-67
2022/12/02 00:19:32;;;;;;;5.30;1.40;;;;;;;20.80;34.65;103044.22;21056243;28;20047;-65
2022/12/02 00:29:39;;;;;;;3.85;1.38;;;;;;;20.88;34.21;103047.78;21076651;28;20040;-66
2022/12/02 00:39:43;;;;;;;1.67;1.08;;;;;;;20.93;33.98;103053.50;21072052;28;20040;-65
2022/12/02 00:49:44;;;;;;;2.67;0.93;;;;;;;20.96;34.11;103053.88;21067236;28;20061;-65
2022/12/02 00:59:45;;;;;;;1.30;1.00;;;;;;;21.01;34.32;103045.69;21072274;28;20040;-67
2022/12/02 01:09:49;;;;;;;3.80;0.98;;;;;;;21.05;34.21;103068.38;21068814;28;20048;-65
2022/12/02 01:19:51;;;;;;;1.83;0.98;;;;;;;21.08;33.93;103051.22;21058914;28;20074;-65
2022/12/02 01:29:55;;;;;;;3.65;1.48;;;;;;;21.08;33.93;103090.19;21072779;28;20476;-65
2022/12/02 01:39:57;;;;;;;3.00;1.08;;;;;;;21.10;33.75;103076.03;21073909;28;20036;-63
2022/12/02 01:50:01;;;;;;;3.40;0.90;;;;;;;21.15;33.52;103107.66;21072754;28;20548;-65
2022/12/02 02:00:04;;;;;;;3.55;1.05;;;;;;;21.11;33.79;103106.41;21070903;28;20036;-66
2022/12/02 02:10:07;;;;;;;2.13;0.70;;;;;;;21.07;33.51;103107.94;21086840;28;20044;-68
2022/12/02 02:20:12;;;;;;;8.43;1.48;;;;;;;21.13;33.73;103104.25;21085769;28;20097;-64
2022/12/02 02:30:14;;;;;;;2.70;0.80;;;;;;;21.16;33.52;103103.78;21084239;28;20048;-64
2022/12/02 02:40:17;;;;;;;1.45;0.70;;;;;;;21.21;33.45;103100.31;21082806;28;20052;-66
2022/12/02 02:50:23;;;;;;;2.47;0.82;;;;;;;21.23;33.30;103128.78;21085600;28;20372;-63
2022/12/02 03:00:24;;;;;;;4.20;0.90;;;;;;;21.14;32.94;103124.59;21081526;28;20039;-64
2022/12/02 03:10:26;;;;;;;1.58;0.90;;;;;;;21.26;32.79;103140.31;21082800;28;20094;-64
2022/12/02 03:20:27;;;;;;;1.40;0.90;;;;;;;21.29;32.66;103153.75;21080010;28;20441;-63
2022/12/02 03:30:29;;;;;;;20.50;1.73;;;;;;;21.31;33.20;103173.94;21079598;28;20040;-65
2022/12/02 03:40:33;;;;;;;2.40;0.95;;;;;;;21.33;32.79;103209.03;21074704;28;20036;-68
2022/12/02 03:50:35;;;;;;;2.00;0.93;;;;;;;21.34;32.50;103197.66;21078702;28;20051;-66
2022/12/02 04:00:40;;;;;;;1.25;0.50;;;;;;;21.36;32.14;103214.16;21071166;28;20052;-67
2022/12/02 04:10:49;;;;;;;2.53;1.00;;;;;;;21.36;32.95;103208.59;21075251;28;20105;-66
2022/12/02 04:20:51;;;;;;;2.25;1.10;;;;;;;21.36;32.11;103194.66;21072234;28;20044;-65
2022/12/02 04:30:52;;;;;;;1.33;0.90;;;;;;;21.37;32.71;103221.44;21051871;28;20113;-66
2022/12/02 04:40:53;;;;;;;1.77;0.82;;;;;;;21.36;32.28;103230.88;21075401;28;20105;-64
2022/12/02 04:50:54;;;;;;;1.63;0.95;;;;;;;21.36;32.34;103242.88;21071819;28;20040;-64
2022/12/02 05:00:56;;;;;;;1.77;0.90;;;;;;;21.36;32.80;103247.59;21068539;28;20048;-67
2022/12/02 05:10:57;;;;;;;7.53;1.08;;;;;;;21.22;32.41;103214.25;21066753;28;20041;-66
2022/12/02 05:21:01;;;;;;;3.08;0.80;;;;;;;21.33;33.04;103265.59;21076235;28;20048;-65
2022/12/02 05:31:08;;;;;;;1.10;0.90;;;;;;;21.41;33.15;103267.25;20998898;28;20040;-66
2022/12/02 05:41:10;;;;;;;0.95;0.82;;;;;;;21.43;32.76;103265.06;21044192;28;20482;-64
2022/12/02 05:51:14;;;;;;;1.67;1.00;;;;;;;21.48;32.52;103257.72;21071072;28;20039;-66
2022/12/02 06:01:35;;;;;;;1.30;1.00;;;;;;;21.48;32.51;103254.09;21075780;28;20044;-66
2022/12/02 06:11:39;;;;;;;1.98;1.17;;;;;;;21.51;32.21;103245.28;21055175;28;20036;-65
2022/12/02 06:21:41;;;;;;;2.22;1.00;;;;;;;21.47;32.63;103232.91;21072824;28;20036;-66
2022/12/02 06:31:43;;;;;;;1.33;1.02;;;;;;;21.48;32.51;103215.94;21027653;28;20472;-66
2022/12/02 06:41:44;;;;;;;1.40;0.90;;;;;;;21.44;32.57;103216.63;21066109;28;20067;-66
2022/12/02 06:51:47;;;;;;;1.52;0.85;;;;;;;21.41;32.14;103225.47;21073939;28;20070;-66
2022/12/02 07:02:01;;;;;;;2.33;1.00;;;;;;;21.40;32.47;103229.34;21085168;28;20175;-66
2022/12/02 07:12:03;;;;;;;1.27;0.93;;;;;;;21.42;32.10;103232.72;21003337;28;20040;-66
2022/12/02 07:22:28;;;;;;;2.00;1.20;;;;;;;21.33;32.43;103231.31;21069710;28;20044;-65
2022/12/02 07:32:29;;;;;;;1.15;1.00;;;;;;;21.34;32.43;103244.16;21085271;28;20024;-65
2022/12/02 07:42:30;;;;;;;3.00;1.30;;;;;;;21.32;31.98;103224.91;21069763;28;20051;-65
2022/12/02 07:52:32;;;;;;;1.52;1.08;;;;;;;21.22;32.20;103225.41;21077973;28;20037;-64
2022/12/02 08:02:33;;;;;;;1.58;1.20;;;;;;;21.25;32.41;103219.34;21080368;28;20044;-64
2022/12/02 08:12:34;;;;;;;1.15;0.95;;;;;;;21.16;32.10;103215.16;21078336;28;20468;-65
2022/12/02 08:22:35;;;;;;;1.27;1.17;;;;;;;21.18;32.13;103223.28;21074426;28;20434;-65
2022/12/02 08:32:37;;;;;;;1.65;0.90;;;;;;;21.17;31.93;103222.44;21072986;28;20544;-65
2022/12/02 08:42:41;;;;;;;3.45;1.85;;;;;;;21.03;31.79;103207.78;21064113;28;20039;-66
2022/12/02 08:52:45;;;;;;;1.30;1.13;;;;;;;21.01;31.39;103217.44;21076254;28;20494;-66
2022/12/02 09:02:46;;;;;;;1.38;1.10;;;;;;;21.12;31.24;103258.47;21061721;28;20044;-66
2022/12/02 09:12:48;;;;;;;1.73;1.20;;;;;;;20.96;31.46;103229.25;21043150;28;20048;-65
2022/12/02 09:22:49;;;;;;;1.80;1.10;;;;;;;21.09;31.43;103256.13;21050460;28;20048;-66
2022/12/02 09:32:50;;;;;;;1.90;1.02;;;;;;;21.01;31.62;103279.53;21069467;28;20415;-66
2022/12/02 09:42:52;;;;;;;1.17;0.90;;;;;;;21.05;31.45;103283.56;21071528;28;20399;-66
2022/12/02 09:53:01;;;;;;;1.25;1.10;;;;;;;20.92;31.35;103288.38;21067136;28;20047;-66
2022/12/02 10:03:06;;;;;;;2.28;1.40;;;;;;;21.01;31.31;103295.38;21065017;28;20457;-66
2022/12/02 10:13:16;;;;;;;1.60;1.50;;;;;;;20.95;31.33;103307.41;21068916;28;20483;-66
2022/12/02 10:23:25;;;;;;;1.40;1.20;;;;;;;20.93;31.32;103329.88;21072408;28;20048;-66
2022/12/02 10:33:28;;;;;;;1.58;1.20;;;;;;;20.76;31.31;103292.56;21083413;28;20076;-66
2022/12/02 10:43:30;;;;;;;1.30;1.20;;;;;;;20.85;31.28;103343.22;21075363;28;20032;-66
2022/12/02 10:53:31;;;;;;;2.17;1.48;;;;;;;20.86;31.29;103343.00;21087752;28;20032;-66
2022/12/02 11:03:33;;;;;;;1.10;1.00;;;;;;;20.80;31.67;103344.75;21081192;28;20052;-66
2022/12/02 11:13:54;;;;;;;1.98;1.10;;;;;;;20.74;31.95;103356.75;21083702;28;20377;-66
2022/12/02 11:24:25;;;;;;;1.20;1.10;;;;;;;20.72;32.13;103352.50;21082222;28;20450;-66
2022/12/02 11:34:43;;;;;;;2.65;1.48;;;;;;;20.58;31.69;103354.50;21078668;28;20090;-66
2022/12/02 11:44:45;;;;;;;2.17;0.97;;;;;;;20.68;31.76;103379.91;21076192;28;20067;-66
2022/12/02 11:54:52;;;;;;;2.00;1.25;;;;;;;20.49;31.79;103350.25;21078049;28;20094;-66
2022/12/02 12:05:05;;;;;;;1.48;0.95;;;;;;;20.71;31.64;103384.16;21072668;28;20044;-66
2022/12/02 12:15:07;;;;;;;1.60;1.23;;;;;;;20.64;31.76;103378.63;21076063;28;20032;-65
2022/12/02 12:25:33;;;;;;;1.35;1.25;;;;;;;20.64;32.16;103419.50;21077859;28;20074;-65
2022/12/02 12:35:34;;;;;;;1.73;1.15;;;;;;;20.62;31.81;103408.63;21068764;28;20036;-66
2022/12/02 12:45:35;;;;;;;3.08;1.92;;;;;;;20.69;31.46;103439.19;21019146;28;20078;-64
2022/12/02 12:55:37;;;;;;;2.35;1.58;;;;;;;20.66;31.91;103426.56;21019552;28;20036;-65
2022/12/02 13:05:41;;;;;;;2.05;1.55;;;;;;;20.68;32.56;103415.22;21064391;28;20043;-65
2022/12/02 13:15:42;;;;;;;2.63;1.70;;;;;;;20.69;32.42;103415.00;21062120;28;20085;-64
2022/12/02 13:25:43;;;;;;;3.33;1.70;;;;;;;20.76;32.34;103401.06;21076084;28;20061;-66
2022/12/02 13:35:46;;;;;;;3.88;1.70;;;;;;;20.66;32.25;103386.75;21064378;28;20057;-65
2022/12/02 13:45:48;;;;;;;3.97;1.63;;;;;;;20.79;32.61;103411.75;21068591;28;20048;-66
2022/12/02 13:55:49;;;;;;;4.78;2.88;;;;;;;20.79;32.38;103426.50;21024760;28;20041;-62
2022/12/02 14:05:50;;;;;;;5.18;2.13;;;;;;;20.85;32.46;103429.47;21084943;28;20047;-66
2022/12/02 14:15:54;;;;;;;5.57;2.10;;;;;;;20.90;32.47;103463.94;21076237;28;20077;-65
2022/12/02 14:25:56;;;;;;;8.70;2.10;;;;;;;20.96;32.83;103468.63;21086581;28;20445;-64
2022/12/02 14:35:57;;;;;;;8.70;2.60;;;;;;;20.98;32.42;103469.28;21076158;28;20040;-62
2022/12/02 14:45:58;;;;;;;8.63;2.60;;;;;;;21.01;32.30;103462.41;21081724;28;20403;-63
2022/12/02 14:56:00;;;;;;;13.52;2.40;;;;;;;21.07;32.23;103450.38;21059892;28;20039;-63
2022/12/02 15:06:01;;;;;;;6.32;2.05;;;;;;;21.12;32.62;103433.00;21052010;28;20487;-61
2022/12/02 15:16:02;;;;;;;4.07;2.05;;;;;;;21.17;32.59;103417.34;21080120;28;20576;-61
2022/12/02 15:26:04;;;;;;;4.50;1.70;;;;;;;20.94;32.02;103366.94;21078385;28;20104;-63
2022/12/02 15:36:05;;;;;;;3.80;2.15;;;;;;;21.25;32.22;103419.00;21071046;28;20479;-64
2022/12/02 15:46:06;;;;;;;4.38;1.75;;;;;;;21.25;32.64;103380.00;21041506;28;20878;-62
2022/12/02 15:56:08;;;;;;;2.10;1.80;;;;;;;21.30;32.34;103369.94;21037989;28;20052;-61
2022/12/02 16:06:12;;;;;;;2.25;1.40;;;;;;;21.33;32.01;103353.88;21033634;28;20385;-61
2022/12/02 16:16:16;;;;;;;2.72;1.67;;;;;;;21.35;32.47;103343.34;21042067;28;20040;-62
2022/12/02 16:26:17;;;;;;;8.40;1.90;;;;;;;21.32;32.38;103316.81;21045534;28;20403;-61
2022/12/02 16:36:19;;;;;;;2.63;1.55;;;;;;;21.40;32.29;103318.47;21053464;28;20520;-62
2022/12/02 16:46:20;;;;;;;4.00;1.40;;;;;;;21.45;31.70;103313.06;21060211;28;20074;-61
2022/12/02 16:56:24;;;;;;;3.92;1.60;;;;;;;21.46;32.37;103284.13;21048416;28;20040;-62
2022/12/02 17:06:25;;;;;;;4.38;1.20;;;;;;;21.50;31.91;103261.16;21068619;28;20048;-61
2022/12/02 17:16:27;;;;;;;3.28;1.42;;;;;;;21.49;32.40;103227.97;21070413;28;20051;-61
2022/12/02 17:26:28;;;;;;;2.08;0.93;;;;;;;21.68;32.83;103224.09;21065527;28;20032;-61
2022/12/02 17:36:29;;;;;;;1.20;1.10;;;;;;;21.81;32.86;103215.59;21071411;28;20120;-61
2022/12/02 17:46:31;;;;;;;3.85;1.60;;;;;;;21.90;33.01;103209.69;21067428;28;20097;-61
2022/12/02 17:56:37;;;;;;;2.83;1.20;;;;;;;21.82;32.89;103172.69;21075236;28;20369;-61
2022/12/02 18:06:41;;;;;;;3.13;1.05;;;;;;;21.92;32.81;103157.38;21074437;28;20102;-61
2022/12/02 18:16:42;;;;;;;2.97;0.90;;;;;;;22.08;32.45;103165.06;21069892;28;20364;-62
2022/12/02 18:26:44;;;;;;;2.20;1.10;;;;;;;22.12;32.06;103168.28;21074575;28;20036;-61
2022/12/02 18:36:45;;;;;;;5.88;1.02;;;;;;;22.14;32.05;103154.97;21072380;28;20408;-61
2022/12/02 18:46:46;;;;;;;3.28;1.17;;;;;;;22.20;31.92;103149.28;21068787;28;20540;-62
2022/12/02 18:56:48;;;;;;;3.17;1.08;;;;;;;22.25;31.92;103135.47;21087318;28;20040;-62
2022/12/02 19:06:50;;;;;;;2.05;0.90;;;;;;;22.27;31.78;103133.31;21086160;28;20040;-62
2022/12/02 19:16:51;;;;;;;1.60;0.85;;;;;;;22.28;31.89;103129.44;21073639;28;20044;-62
2022/12/02 19:26:52;;;;;;;2.28;1.40;;;;;;;22.30;31.90;103131.97;21077894;28;20101;-63
2022/12/02 19:36:54;;;;;;;1.15;0.90;;;;;;;22.32;31.75;103143.75;21083634;27;20415;-62
2022/12/02 19:46:55;;;;;;;1.95;1.00;;;;;;;22.37;31.93;103134.66;21075957;28;20044;-62
2022/12/02 19:56:56;;;;;;;3.85;0.90;;;;;;;22.38;31.91;103111.25;21073149;28;20036;-62
2022/12/02 20:06:57;;;;;;;3.28;0.88;;;;;;;22.40;32.44;103097.91;21079754;28;20383;-65
2022/12/02 20:16:59;;;;;;;1.92;1.00;;;;;;;22.41;32.53;103096.84;21074854;28;20040;-62
2022/12/02 20:27:00;;;;;;;2.28;1.23;;;;;;;22.40;32.14;103079.22;21042152;28;20032;-64
2022/12/02 20:37:04;;;;;;;25.40;2.10;;;;;;;22.33;32.11;103070.13;21075214;28;20044;-64
2022/12/02 20:47:05;;;;;;;11.82;1.35;;;;;;;22.38;31.67;103075.84;21070924;28;20028;-66
2022/12/02 20:57:11;;;;;;;3.63;1.20;;;;;;;22.36;32.05;103058.50;21076154;28;20491;-66
2022/12/02 21:07:32;;;;;;;6.63;0.90;;;;;;;22.25;31.84;103057.38;21077212;28;20016;-66
2022/12/02 21:17:36;;;;;;;3.42;1.00;;;;;;;22.23;31.73;103054.00;21058791;28;20475;-70
2022/12/02 21:27:38;;;;;;;5.43;1.20;;;;;;;22.21;31.85;103060.88;21075995;28;20044;-66
2022/12/02 21:37:42;;;;;;;2.83;1.08;;;;;;;22.20;32.27;103075.91;21066377;28;20036;-67
2022/12/02 21:47:46;;;;;;;5.50;1.40;;;;;;;21.99;31.79;103053.06;21068885;28;20037;-68
2022/12/02 21:57:47;;;;;;;5.05;1.08;;;;;;;22.20;32.24;103098.22;21066871;28;20044;-68
2022/12/02 22:07:48;;;;;;;5.65;1.25;;;;;;;22.20;32.29;103092.66;21075196;28;20475;-68
2022/12/02 22:17:49;;;;;;;5.07;1.52;;;;;;;22.20;32.41;103098.22;21057587;28;20036;-66
2022/12/02 22:27:54;;;;;;;5.00;1.88;;;;;;;22.23;32.76;103122.88;21064775;28;20044;-67
2022/12/02 22:37:55;;;;;;;11.05;2.20;;;;;;;22.23;32.82;103109.78;21058415;28;20051;-65
2022/12/02 22:47:56;;;;;;;14.02;2.00;;;;;;;22.22;32.74;103091.34;21050649;28;20028;-66
2022/12/02 22:57:58;;;;;;;8.75;2.17;;;;;;;22.22;33.13;103074.59;21079633;28;20039;-64
2022/12/02 23:08:02;;;;;;;12.35;2.20;;;;;;;22.09;33.43;103069.19;21087066;28;20044;-64
2022/12/02 23:18:04;;;;;;;13.80;3.30;;;;;;;22.19;33.72;103071.44;21083449;28;20047;-63
2022/12/02 23:28:05;;;;;;;14.55;3.38;;;;;;;22.18;33.53;103080.91;21075605;28;20055;-63
2022/12/02 23:38:06;;;;;;;10.98;4.00;;;;;;;22.19;33.96;103058.34;21079523;28;20097;-63
2022/12/02 23:48:10;;;;;;;9.05;3.83;;;;;;;22.21;34.13;103078.47;21075241;28;20480;-63
2022/12/02 23:58:20;;;;;;;10.35;4.07;;;;;;;22.18;33.96;103056.66;21062546;28;20082;-64
